sensor_id;sensor_type;location;lat;lon;timestamp;pressure;altitude;pressure_sealevel;temperature;humidity
41515;BME280;27247;48.020;16.720;2023-04-23T00:01:02;99416.47;;;11.48;77.44
41515;BME280;27247;48.020;16.720;2023-04-23T00:05:14;99403.78;;;11.35;78.33
41515;BME280;27247;48.020;16.720;2023-04-23T00:09:28;99403.91;;;11.27;78.98
41515;BME280;27247;48.020;16.720;2023-04-23T00:13:39;99389.03;;;11.03;80.08
41515;BME280;27247;48.020;16.720;2023-04-23T00:17:50;99394.69;;;10.94;80.98
41515;BME280;27247;48.020;16.720;2023-04-23T00:22:00;99385.59;;;10.88;81.53
41515;BME280;27247;48.020;16.720;2023-04-23T00:26:10;99385.09;;;10.99;81.52
41515;BME280;27247;48.020;16.720;2023-04-23T00:30:21;99389.72;;;10.91;81.52
41515;BME280;27247;48.020;16.720;2023-04-23T00:34:31;99385.84;;;10.93;81.85
41515;BME280;27247;48.020;16.720;2023-04-23T00:38:42;99377.00;;;10.93;82.18
41515;BME280;27247;48.020;16.720;2023-04-23T00:42:52;99373.16;;;10.80;83.18
41515;BME280;27247;48.020;16.720;2023-04-23T00:47:05;99378.44;;;10.74;83.62
41515;BME280;27247;48.020;16.720;2023-04-23T00:51:16;99369.31;;;10.68;84.07
41515;BME280;27247;48.020;16.720;2023-04-23T00:55:26;99370.81;;;10.56;84.55
41515;BME280;27247;48.020;16.720;2023-04-23T00:59:37;99367.09;;;10.72;84.47
41515;BME280;27247;48.020;16.720;2023-04-23T01:03:48;99373.56;;;10.63;84.38
41515;BME280;27247;48.020;16.720;2023-04-23T01:07:59;99366.13;;;10.58;84.49
41515;BME280;27247;48.020;16.720;2023-04-23T01:12:10;99380.59;;;10.49;84.63
41515;BME280;27247;48.020;16.720;2023-04-23T01:16:20;99372.31;;;10.44;84.98
41515;BME280;27247;48.020;16.720;2023-04-23T01:20:31;99368.81;;;10.43;85.15
41515;BME280;27247;48.020;16.720;2023-04-23T01:24:41;99365.59;;;10.48;84.88
41515;BME280;27247;48.020;16.720;2023-04-23T01:28:52;99365.03;;;10.52;84.35
41515;BME280;27247;48.020;16.720;2023-04-23T01:33:03;99376.09;;;10.49;84.80
41515;BME280;27247;48.020;16.720;2023-04-23T01:37:15;99375.81;;;10.44;84.89
41515;BME280;27247;48.020;16.720;2023-04-23T01:41:26;99362.84;;;10.41;84.79
41515;BME280;27247;48.020;16.720;2023-04-23T01:45:37;99361.19;;;10.40;85.07
41515;BME280;27247;48.020;16.720;2023-04-23T01:49:48;99361.81;;;10.42;84.32
41515;BME280;27247;48.020;16.720;2023-04-23T01:53:58;99360.50;;;10.38;84.10
41515;BME280;27247;48.020;16.720;2023-04-23T01:58:08;99360.69;;;10.37;84.07
41515;BME280;27247;48.020;16.720;2023-04-23T02:02:19;99361.16;;;10.26;83.64
41515;BME280;27247;48.020;16.720;2023-04-23T02:06:30;99358.03;;;10.22;84.36
41515;BME280;27247;48.020;16.720;2023-04-23T02:10:41;99354.41;;;10.00;84.78
41515;BME280;27247;48.020;16.720;2023-04-23T02:19:58;99354.31;;;9.93;85.86
41515;BME280;27247;48.020;16.720;2023-04-23T02:24:09;99355.16;;;9.94;85.32
41515;BME280;27247;48.020;16.720;2023-04-23T02:28:20;99354.50;;;9.92;85.52
41515;BME280;27247;48.020;16.720;2023-04-23T02:32:30;99347.13;;;9.94;85.13
41515;BME280;27247;48.020;16.720;2023-04-23T02:36:40;99352.84;;;9.91;84.68
41515;BME280;27247;48.020;16.720;2023-04-23T02:40:51;99351.28;;;9.82;84.73
41515;BME280;27247;48.020;16.720;2023-04-23T02:45:01;99355.06;;;9.87;84.04
41515;BME280;27247;48.020;16.720;2023-04-23T02:49:11;99348.31;;;9.77;83.89
41515;BME280;27247;48.020;16.720;2023-04-23T02:53:22;99350.72;;;9.72;84.76
41515;BME280;27247;48.020;16.720;2023-04-23T02:57:33;99350.25;;;9.68;84.64
41515;BME280;27247;48.020;16.720;2023-04-23T03:01:43;99349.97;;;9.63;84.95
41515;BME280;27247;48.020;16.720;2023-04-23T03:05:53;99342.41;;;9.52;85.44
41515;BME280;27247;48.020;16.720;2023-04-23T03:10:04;99344.13;;;9.45;86.07
41515;BME280;27247;48.020;16.720;2023-04-23T03:14:15;99340.16;;;9.41;86.60
41515;BME280;27247;48.020;16.720;2023-04-23T03:18:26;99342.00;;;9.40;86.08
41515;BME280;27247;48.020;16.720;2023-04-23T03:22:36;99339.09;;;9.27;86.28
41515;BME280;27247;48.020;16.720;2023-04-23T03:26:46;99337.63;;;9.24;86.08
41515;BME280;27247;48.020;16.720;2023-04-23T03:30:57;99335.19;;;9.15;87.01
41515;BME280;27247;48.020;16.720;2023-04-23T03:35:07;99337.84;;;9.15;86.62
41515;BME280;27247;48.020;16.720;2023-04-23T03:39:18;99331.16;;;9.19;86.00
41515;BME280;27247;48.020;16.720;2023-04-23T03:43:28;99335.84;;;9.17;85.44
41515;BME280;27247;48.020;16.720;2023-04-23T03:47:39;99339.81;;;9.21;84.72
41515;BME280;27247;48.020;16.720;2023-04-23T03:51:49;99341.34;;;9.15;85.29
41515;BME280;27247;48.020;16.720;2023-04-23T03:55:59;99342.47;;;9.21;84.89
41515;BME280;27247;48.020;16.720;2023-04-23T04:00:10;99348.69;;;9.13;85.47
41515;BME280;27247;48.020;16.720;2023-04-23T04:04:21;99352.13;;;9.22;85.05
41515;BME280;27247;48.020;16.720;2023-04-23T04:08:31;99355.25;;;9.25;84.59
41515;BME280;27247;48.020;16.720;2023-04-23T04:12:41;99357.03;;;9.33;83.85
41515;BME280;27247;48.020;16.720;2023-04-23T04:16:54;99352.69;;;9.40;83.88
41515;BME280;27247;48.020;16.720;2023-04-23T04:21:04;99344.84;;;9.39;83.45
41515;BME280;27247;48.020;16.720;2023-04-23T04:25:14;99354.88;;;9.37;83.66
41515;BME280;27247;48.020;16.720;2023-04-23T04:29:25;99354.81;;;9.45;83.19
41515;BME280;27247;48.020;16.720;2023-04-23T04:33:35;99347.91;;;9.50;83.93
41515;BME280;27247;48.020;16.720;2023-04-23T04:37:48;99346.19;;;9.57;83.23
41515;BME280;27247;48.020;16.720;2023-04-23T04:41:59;99350.44;;;9.67;83.17
41515;BME280;27247;48.020;16.720;2023-04-23T04:46:11;99338.00;;;9.74;83.44
41515;BME280;27247;48.020;16.720;2023-04-23T04:50:22;99339.59;;;9.83;82.92
41515;BME280;27247;48.020;16.720;2023-04-23T04:54:33;99352.19;;;9.89;83.48
41515;BME280;27247;48.020;16.720;2023-04-23T04:58:43;99347.41;;;9.99;83.46
41515;BME280;27247;48.020;16.720;2023-04-23T05:02:57;99362.78;;;10.12;83.07
41515;BME280;27247;48.020;16.720;2023-04-23T05:07:07;99364.38;;;10.21;82.50
41515;BME280;27247;48.020;16.720;2023-04-23T05:11:18;99373.13;;;10.30;82.74
41515;BME280;27247;48.020;16.720;2023-04-23T05:15:30;99385.31;;;10.47;82.39
41515;BME280;27247;48.020;16.720;2023-04-23T05:19:40;99387.00;;;10.69;81.73
41515;BME280;27247;48.020;16.720;2023-04-23T05:23:50;99393.25;;;10.76;80.72
41515;BME280;27247;48.020;16.720;2023-04-23T05:28:00;99392.47;;;10.97;80.98
41515;BME280;27247;48.020;16.720;2023-04-23T05:32:11;99394.28;;;11.11;79.89
41515;BME280;27247;48.020;16.720;2023-04-23T05:36:21;99402.63;;;11.23;79.16
41515;BME280;27247;48.020;16.720;2023-04-23T05:40:32;99397.41;;;11.36;79.56
41515;BME280;27247;48.020;16.720;2023-04-23T05:44:45;99387.59;;;11.43;77.99
41515;BME280;27247;48.020;16.720;2023-04-23T05:48:55;99388.69;;;11.49;79.58
41515;BME280;27247;48.020;16.720;2023-04-23T05:53:06;99393.09;;;11.57;78.52
41515;BME280;27247;48.020;16.720;2023-04-23T05:57:16;99385.75;;;11.65;78.92
41515;BME280;27247;48.020;16.720;2023-04-23T06:01:27;99398.44;;;11.78;77.77
41515;BME280;27247;48.020;16.720;2023-04-23T06:05:37;99398.47;;;11.85;78.95
41515;BME280;27247;48.020;16.720;2023-04-23T06:09:48;99400.81;;;11.94;77.18
41515;BME280;27247;48.020;16.720;2023-04-23T06:13:58;99406.84;;;12.03;78.37
41515;BME280;27247;48.020;16.720;2023-04-23T06:18:08;99410.44;;;12.17;76.26
41515;BME280;27247;48.020;16.720;2023-04-23T06:22:19;99420.41;;;12.29;75.37
41515;BME280;27247;48.020;16.720;2023-04-23T06:26:30;99419.38;;;12.58;76.49
41515;BME280;27247;48.020;16.720;2023-04-23T06:30:40;99420.75;;;12.89;75.07
41515;BME280;27247;48.020;16.720;2023-04-23T06:34:50;99416.28;;;13.16;74.08
41515;BME280;27247;48.020;16.720;2023-04-23T06:39:01;99415.31;;;13.36;72.50
41515;BME280;27247;48.020;16.720;2023-04-23T06:43:11;99420.34;;;13.53;71.78
41515;BME280;27247;48.020;16.720;2023-04-23T06:47:23;99418.06;;;13.56;70.37
41515;BME280;27247;48.020;16.720;2023-04-23T06:51:34;99415.38;;;13.76;70.62
41515;BME280;27247;48.020;16.720;2023-04-23T06:55:44;99413.31;;;13.85;70.38
41515;BME280;27247;48.020;16.720;2023-04-23T06:59:54;99409.81;;;14.04;69.75
41515;BME280;27247;48.020;16.720;2023-04-23T07:04:05;99409.16;;;14.09;68.73
41515;BME280;27247;48.020;16.720;2023-04-23T07:08:15;99410.41;;;14.19;69.75
41515;BME280;27247;48.020;16.720;2023-04-23T07:12:26;99401.69;;;14.30;68.87
41515;BME280;27247;48.020;16.720;2023-04-23T07:16:36;99405.78;;;14.53;68.17
41515;BME280;27247;48.020;16.720;2023-04-23T07:20:46;99396.63;;;14.80;67.84
41515;BME280;27247;48.020;16.720;2023-04-23T07:24:57;99396.41;;;15.20;67.85
41515;BME280;27247;48.020;16.720;2023-04-23T07:29:08;99402.81;;;15.63;68.80
41515;BME280;27247;48.020;16.720;2023-04-23T07:33:25;99399.19;;;15.76;66.15
41515;BME280;27247;48.020;16.720;2023-04-23T07:37:36;99401.94;;;15.70;65.51
41515;BME280;27247;48.020;16.720;2023-04-23T07:41:47;99389.34;;;15.88;64.93
41515;BME280;27247;48.020;16.720;2023-04-23T07:45:57;99402.78;;;16.13;65.97
41515;BME280;27247;48.020;16.720;2023-04-23T07:50:08;99395.38;;;16.64;65.02
41515;BME280;27247;48.020;16.720;2023-04-23T07:54:19;99395.13;;;16.90;65.72
41515;BME280;27247;48.020;16.720;2023-04-23T07:58:29;99389.50;;;17.21;62.81
41515;BME280;27247;48.020;16.720;2023-04-23T08:02:42;99388.66;;;17.51;62.55
41515;BME280;27247;48.020;16.720;2023-04-23T08:06:52;99386.19;;;17.61;61.83
41515;BME280;27247;48.020;16.720;2023-04-23T08:11:02;99396.75;;;17.51;60.33
41515;BME280;27247;48.020;16.720;2023-04-23T08:15:13;99389.47;;;17.81;61.46
41515;BME280;27247;48.020;16.720;2023-04-23T08:19:23;99391.13;;;17.64;59.60
41515;BME280;27247;48.020;16.720;2023-04-23T08:23:33;99388.00;;;17.67;57.76
41515;BME280;27247;48.020;16.720;2023-04-23T08:27:44;99386.63;;;17.76;58.47
41515;BME280;27247;48.020;16.720;2023-04-23T08:31:54;99382.41;;;17.80;58.21
41515;BME280;27247;48.020;16.720;2023-04-23T08:36:05;99381.00;;;17.90;58.06
41515;BME280;27247;48.020;16.720;2023-04-23T08:40:15;99383.34;;;18.33;59.62
41515;BME280;27247;48.020;16.720;2023-04-23T08:44:26;99377.94;;;18.09;58.54
41515;BME280;27247;48.020;16.720;2023-04-23T08:48:38;99371.53;;;18.50;58.70
41515;BME280;27247;48.020;16.720;2023-04-23T08:52:56;99371.78;;;18.49;57.44
41515;BME280;27247;48.020;16.720;2023-04-23T08:57:07;99370.72;;;18.62;58.58
41515;BME280;27247;48.020;16.720;2023-04-23T09:01:18;99368.41;;;18.30;57.94
41515;BME280;27247;48.020;16.720;2023-04-23T09:05:29;99360.75;;;18.27;59.19
41515;BME280;27247;48.020;16.720;2023-04-23T09:09:40;99354.69;;;18.60;58.71
41515;BME280;27247;48.020;16.720;2023-04-23T09:13:50;99364.16;;;19.26;58.92
41515;BME280;27247;48.020;16.720;2023-04-23T09:18:01;99359.78;;;19.25;56.72
41515;BME280;27247;48.020;16.720;2023-04-23T09:22:11;99349.72;;;19.37;57.54
41515;BME280;27247;48.020;16.720;2023-04-23T09:26:22;99357.94;;;19.42;56.76
41515;BME280;27247;48.020;16.720;2023-04-23T09:30:38;99348.78;;;19.60;57.01
41515;BME280;27247;48.020;16.720;2023-04-23T09:34:55;99352.06;;;19.96;56.62
41515;BME280;27247;48.020;16.720;2023-04-23T09:39:13;99347.63;;;20.06;55.63
41515;BME280;27247;48.020;16.720;2023-04-23T09:43:29;99331.72;;;20.15;55.34
41515;BME280;27247;48.020;16.720;2023-04-23T09:47:40;99334.06;;;20.28;54.34
41515;BME280;27247;48.020;16.720;2023-04-23T09:52:05;99327.38;;;20.14;54.50
41515;BME280;27247;48.020;16.720;2023-04-23T09:56:18;99338.19;;;19.92;54.97
41515;BME280;27247;48.020;16.720;2023-04-23T10:00:34;99313.66;;;20.86;51.84
41515;BME280;27247;48.020;16.720;2023-04-23T10:04:49;99313.34;;;20.83;52.56
41515;BME280;27247;48.020;16.720;2023-04-23T10:09:01;99319.38;;;20.68;52.75
41515;BME280;27247;48.020;16.720;2023-04-23T10:13:12;99312.13;;;20.95;49.05
41515;BME280;27247;48.020;16.720;2023-04-23T10:17:22;99309.72;;;20.77;49.54
41515;BME280;27247;48.020;16.720;2023-04-23T10:21:33;99301.06;;;20.80;49.83
41515;BME280;27247;48.020;16.720;2023-04-23T10:25:44;99291.78;;;20.76;50.67
41515;BME280;27247;48.020;16.720;2023-04-23T10:29:56;99304.38;;;20.60;51.13
41515;BME280;27247;48.020;16.720;2023-04-23T10:34:09;99296.72;;;20.57;52.02
41515;BME280;27247;48.020;16.720;2023-04-23T10:38:19;99283.22;;;20.40;52.00
41515;BME280;27247;48.020;16.720;2023-04-23T10:42:31;99291.38;;;20.40;52.11
41515;BME280;27247;48.020;16.720;2023-04-23T10:51:02;99277.06;;;20.72;49.57
41515;BME280;27247;48.020;16.720;2023-04-23T10:55:16;99267.53;;;20.91;50.90
41515;BME280;27247;48.020;16.720;2023-04-23T10:59:29;99259.25;;;21.08;51.21
41515;BME280;27247;48.020;16.720;2023-04-23T11:03:40;99266.88;;;21.11;51.45
41515;BME280;27247;48.020;16.720;2023-04-23T11:08:04;99261.56;;;20.94;50.75
41515;BME280;27247;48.020;16.720;2023-04-23T11:16:35;99260.63;;;21.11;51.52
41515;BME280;27247;48.020;16.720;2023-04-23T11:20:46;99255.53;;;20.87;50.41
41515;BME280;27247;48.020;16.720;2023-04-23T11:25:00;99254.16;;;21.17;51.15
41515;BME280;27247;48.020;16.720;2023-04-23T11:29:11;99242.88;;;21.30;50.24
41515;BME280;27247;48.020;16.720;2023-04-23T11:33:24;99241.69;;;21.53;50.93
41515;BME280;27247;48.020;16.720;2023-04-23T11:37:39;99238.88;;;21.38;49.70
41515;BME280;27247;48.020;16.720;2023-04-23T11:41:50;99241.84;;;21.36;49.99
41515;BME280;27247;48.020;16.720;2023-04-23T11:46:01;99241.50;;;21.64;49.77
41515;BME280;27247;48.020;16.720;2023-04-23T11:50:19;99222.00;;;21.78;49.33
41515;BME280;27247;48.020;16.720;2023-04-23T11:54:30;99223.38;;;22.27;50.38
41515;BME280;27247;48.020;16.720;2023-04-23T11:58:40;99225.81;;;22.24;50.04
41515;BME280;27247;48.020;16.720;2023-04-23T12:02:55;99217.41;;;22.36;48.59
41515;BME280;27247;48.020;16.720;2023-04-23T12:07:06;99226.09;;;22.33;48.31
41515;BME280;27247;48.020;16.720;2023-04-23T12:11:17;99219.28;;;22.30;47.97
41515;BME280;27247;48.020;16.720;2023-04-23T12:15:27;99210.13;;;22.77;48.82
41515;BME280;27247;48.020;16.720;2023-04-23T12:19:38;99204.34;;;22.43;47.67
41515;BME280;27247;48.020;16.720;2023-04-23T12:23:50;99192.16;;;22.76;48.01
41515;BME280;27247;48.020;16.720;2023-04-23T12:28:02;99199.28;;;22.82;48.31
41515;BME280;27247;48.020;16.720;2023-04-23T12:32:14;99195.75;;;22.91;47.28
41515;BME280;27247;48.020;16.720;2023-04-23T12:36:26;99191.41;;;22.96;47.44
41515;BME280;27247;48.020;16.720;2023-04-23T12:40:39;99193.28;;;22.85;46.48
41515;BME280;27247;48.020;16.720;2023-04-23T12:44:49;99175.06;;;22.96;47.10
41515;BME280;27247;48.020;16.720;2023-04-23T12:49:00;99163.81;;;23.48;47.68
41515;BME280;27247;48.020;16.720;2023-04-23T12:53:11;99181.31;;;23.01;46.83
41515;BME280;27247;48.020;16.720;2023-04-23T12:57:21;99162.44;;;22.64;47.02
41515;BME280;27247;48.020;16.720;2023-04-23T13:01:32;99175.25;;;22.79;46.38
41515;BME280;27247;48.020;16.720;2023-04-23T13:05:42;99164.09;;;22.75;47.44
41515;BME280;27247;48.020;16.720;2023-04-23T13:09:52;99156.78;;;22.91;46.33
41515;BME280;27247;48.020;16.720;2023-04-23T13:14:03;99157.00;;;22.64;46.16
41515;BME280;27247;48.020;16.720;2023-04-23T13:18:14;99152.88;;;22.36;47.41
41515;BME280;27247;48.020;16.720;2023-04-23T13:22:24;99144.47;;;22.53;47.44
41515;BME280;27247;48.020;16.720;2023-04-23T13:26:38;99137.38;;;22.42;47.86
41515;BME280;27247;48.020;16.720;2023-04-23T13:30:48;99131.34;;;22.29;47.38
41515;BME280;27247;48.020;16.720;2023-04-23T13:34:58;99118.59;;;22.45;49.13
41515;BME280;27247;48.020;16.720;2023-04-23T13:39:14;99109.09;;;23.04;50.20
41515;BME280;27247;48.020;16.720;2023-04-23T13:43:24;99119.44;;;22.86;47.88
41515;BME280;27247;48.020;16.720;2023-04-23T13:47:35;99110.16;;;22.77;46.59
41515;BME280;27247;48.020;16.720;2023-04-23T13:51:45;99100.38;;;23.07;48.14
41515;BME280;27247;48.020;16.720;2023-04-23T13:55:56;99102.78;;;22.62;47.02
41515;BME280;27247;48.020;16.720;2023-04-23T14:00:06;99096.22;;;22.28;48.14
41515;BME280;27247;48.020;16.720;2023-04-23T14:04:17;99092.31;;;21.93;48.92
41515;BME280;27247;48.020;16.720;2023-04-23T14:08:28;99095.47;;;21.70;48.90
41515;BME280;27247;48.020;16.720;2023-04-23T14:12:38;99092.53;;;21.82;49.44
41515;BME280;27247;48.020;16.720;2023-04-23T14:16:48;99076.47;;;21.80;50.34
41515;BME280;27247;48.020;16.720;2023-04-23T14:20:59;99080.19;;;21.54;48.35
41515;BME280;27247;48.020;16.720;2023-04-23T14:25:13;99073.13;;;21.53;49.06
41515;BME280;27247;48.020;16.720;2023-04-23T14:29:50;99072.22;;;21.37;48.94
41515;BME280;27247;48.020;16.720;2023-04-23T14:34:01;99070.94;;;21.55;49.85
41515;BME280;27247;48.020;16.720;2023-04-23T14:38:11;99053.78;;;21.44;50.26
41515;BME280;27247;48.020;16.720;2023-04-23T14:42:21;99061.97;;;21.54;51.04
41515;BME280;27247;48.020;16.720;2023-04-23T14:46:32;99059.78;;;21.51;50.31
41515;BME280;27247;48.020;16.720;2023-04-23T14:50:42;99056.28;;;21.56;49.65
41515;BME280;27247;48.020;16.720;2023-04-23T14:54:52;99051.13;;;21.59;49.54
41515;BME280;27247;48.020;16.720;2023-04-23T14:59:04;99043.53;;;21.72;49.17
41515;BME280;27247;48.020;16.720;2023-04-23T15:03:15;99046.88;;;21.89;49.46
41515;BME280;27247;48.020;16.720;2023-04-23T15:07:25;99052.66;;;22.03;48.79
41515;BME280;27247;48.020;16.720;2023-04-23T15:11:36;99039.88;;;22.08;49.48
41515;BME280;27247;48.020;16.720;2023-04-23T15:15:49;99040.63;;;21.98;48.59
41515;BME280;27247;48.020;16.720;2023-04-23T15:20:02;99039.25;;;21.86;49.08
41515;BME280;27247;48.020;16.720;2023-04-23T15:24:13;99042.97;;;21.64;48.13
41515;BME280;27247;48.020;16.720;2023-04-23T15:28:24;99041.31;;;21.53;48.85
41515;BME280;27247;48.020;16.720;2023-04-23T15:32:35;99039.38;;;21.49;49.31
41515;BME280;27247;48.020;16.720;2023-04-23T15:36:45;99038.03;;;21.46;49.75
41515;BME280;27247;48.020;16.720;2023-04-23T15:40:55;99032.34;;;21.53;50.16
41515;BME280;27247;48.020;16.720;2023-04-23T15:45:10;99036.94;;;21.47;51.00
41515;BME280;27247;48.020;16.720;2023-04-23T15:49:21;99026.31;;;21.41;50.07
41515;BME280;27247;48.020;16.720;2023-04-23T15:53:32;99032.25;;;21.32;51.46
41515;BME280;27247;48.020;16.720;2023-04-23T15:57:42;99031.69;;;21.25;50.01
41515;BME280;27247;48.020;16.720;2023-04-23T16:01:54;99021.56;;;21.21;50.57
41515;BME280;27247;48.020;16.720;2023-04-23T16:06:05;99021.56;;;21.16;50.88
41515;BME280;27247;48.020;16.720;2023-04-23T16:10:16;99029.13;;;21.09;51.55
41515;BME280;27247;48.020;16.720;2023-04-23T16:14:26;99024.25;;;21.11;52.01
41515;BME280;27247;48.020;16.720;2023-04-23T16:18:36;99012.56;;;21.10;52.10
41515;BME280;27247;48.020;16.720;2023-04-23T16:22:47;99009.56;;;21.12;50.91
41515;BME280;27247;48.020;16.720;2023-04-23T16:26:57;99009.50;;;20.96;51.55
41515;BME280;27247;48.020;16.720;2023-04-23T16:31:08;99006.75;;;20.91;52.48
41515;BME280;27247;48.020;16.720;2023-04-23T16:35:18;99001.56;;;20.85;53.10
41515;BME280;27247;48.020;16.720;2023-04-23T16:39:29;99006.31;;;20.67;53.20
41515;BME280;27247;48.020;16.720;2023-04-23T16:43:40;99006.06;;;20.69;53.86
41515;BME280;27247;48.020;16.720;2023-04-23T16:47:50;99004.59;;;20.56;54.29
41515;BME280;27247;48.020;16.720;2023-04-23T16:52:01;99000.78;;;20.52;55.21
41515;BME280;27247;48.020;16.720;2023-04-23T16:56:12;98993.84;;;20.34;54.51
41515;BME280;27247;48.020;16.720;2023-04-23T17:00:23;98993.53;;;20.31;55.79
41515;BME280;27247;48.020;16.720;2023-04-23T17:04:34;98994.75;;;20.13;55.40
41515;BME280;27247;48.020;16.720;2023-04-23T17:08:44;98988.72;;;20.06;56.14
41515;BME280;27247;48.020;16.720;2023-04-23T17:12:56;98995.69;;;19.97;55.65
41515;BME280;27247;48.020;16.720;2023-04-23T17:17:06;98993.97;;;19.86;55.46
41515;BME280;27247;48.020;16.720;2023-04-23T17:21:17;98995.09;;;19.68;56.38
41515;BME280;27247;48.020;16.720;2023-04-23T17:25:28;98988.56;;;19.64;55.61
41515;BME280;27247;48.020;16.720;2023-04-23T17:29:39;98975.47;;;19.56;56.28
41515;BME280;27247;48.020;16.720;2023-04-23T17:33:50;98980.56;;;19.52;55.89
41515;BME280;27247;48.020;16.720;2023-04-23T17:38:02;98979.06;;;19.39;56.52
41515;BME280;27247;48.020;16.720;2023-04-23T17:42:13;98978.31;;;19.22;56.93
41515;BME280;27247;48.020;16.720;2023-04-23T17:46:24;98981.91;;;19.28;57.67
41515;BME280;27247;48.020;16.720;2023-04-23T17:50:34;98984.53;;;19.23;59.07
41515;BME280;27247;48.020;16.720;2023-04-23T17:54:45;98971.13;;;19.11;59.01
41515;BME280;27247;48.020;16.720;2023-04-23T17:58:56;98979.44;;;18.83;59.49
41515;BME280;27247;48.020;16.720;2023-04-23T18:03:07;98982.31;;;18.76;59.75
41515;BME280;27247;48.020;16.720;2023-04-23T18:07:18;98982.66;;;18.63;60.14
41515;BME280;27247;48.020;16.720;2023-04-23T18:11:29;98994.44;;;18.57;60.35
41515;BME280;27247;48.020;16.720;2023-04-23T18:15:39;98985.28;;;18.41;60.86
41515;BME280;27247;48.020;16.720;2023-04-23T18:19:54;98989.22;;;18.33;61.77
41515;BME280;27247;48.020;16.720;2023-04-23T18:24:05;98984.22;;;18.08;62.29
41515;BME280;27247;48.020;16.720;2023-04-23T18:28:15;98991.41;;;17.86;62.33
41515;BME280;27247;48.020;16.720;2023-04-23T18:32:26;98993.09;;;17.75;62.13
41515;BME280;27247;48.020;16.720;2023-04-23T18:36:41;98998.59;;;17.80;61.88
41515;BME280;27247;48.020;16.720;2023-04-23T18:40:53;98993.78;;;17.82;61.18
41515;BME280;27247;48.020;16.720;2023-04-23T18:45:04;98995.09;;;17.68;61.44
41515;BME280;27247;48.020;16.720;2023-04-23T18:53:43;98991.47;;;17.63;61.39
41515;BME280;27247;48.020;16.720;2023-04-23T18:57:55;98992.56;;;17.50;61.89
41515;BME280;27247;48.020;16.720;2023-04-23T19:02:07;99002.06;;;17.52;61.91
41515;BME280;27247;48.020;16.720;2023-04-23T19:06:19;98997.63;;;17.46;62.18
41515;BME280;27247;48.020;16.720;2023-04-23T19:10:30;98996.13;;;17.39;62.27
41515;BME280;27247;48.020;16.720;2023-04-23T19:14:41;98987.94;;;17.34;61.88
41515;BME280;27247;48.020;16.720;2023-04-23T19:18:52;98988.16;;;17.32;62.53
41515;BME280;27247;48.020;16.720;2023-04-23T19:23:02;98982.56;;;17.22;62.41
41515;BME280;27247;48.020;16.720;2023-04-23T19:27:14;98979.53;;;17.18;62.87
41515;BME280;27247;48.020;16.720;2023-04-23T19:31:27;98984.47;;;17.10;63.19
41515;BME280;27247;48.020;16.720;2023-04-23T19:35:38;98989.66;;;17.11;63.16
41515;BME280;27247;48.020;16.720;2023-04-23T19:39:48;98984.50;;;16.98;63.08
41515;BME280;27247;48.020;16.720;2023-04-23T19:43:59;98983.25;;;16.89;62.86
41515;BME280;27247;48.020;16.720;2023-04-23T19:48:10;98991.22;;;16.84;62.88
41515;BME280;27247;48.020;16.720;2023-04-23T19:52:24;98982.66;;;16.87;62.52
41515;BME280;27247;48.020;16.720;2023-04-23T19:56:36;98987.81;;;16.88;62.44
41515;BME280;27247;48.020;16.720;2023-04-23T20:00:46;98983.94;;;16.84;61.67
41515;BME280;27247;48.020;16.720;2023-04-23T20:04:57;98987.34;;;16.91;61.17
41515;BME280;27247;48.020;16.720;2023-04-23T20:09:09;98980.09;;;16.80;62.52
41515;BME280;27247;48.020;16.720;2023-04-23T20:13:27;98999.63;;;16.64;64.23
41515;BME280;27247;48.020;16.720;2023-04-23T20:17:38;98993.53;;;16.34;66.57
41515;BME280;27247;48.020;16.720;2023-04-23T20:21:48;99000.53;;;16.11;69.45
41515;BME280;27247;48.020;16.720;2023-04-23T20:25:59;99009.19;;;16.02;70.09
41515;BME280;27247;48.020;16.720;2023-04-23T20:30:10;99005.63;;;15.78;74.56
41515;BME280;27247;48.020;16.720;2023-04-23T20:34:22;99009.94;;;14.94;84.66
41515;BME280;27247;48.020;16.720;2023-04-23T20:38:33;99005.03;;;14.41;87.32
41515;BME280;27247;48.020;16.720;2023-04-23T20:42:43;98983.66;;;14.53;88.43
41515;BME280;27247;48.020;16.720;2023-04-23T20:46:55;98985.53;;;14.52;88.80
41515;BME280;27247;48.020;16.720;2023-04-23T20:51:07;98978.47;;;14.58;91.13
41515;BME280;27247;48.020;16.720;2023-04-23T20:55:17;98972.09;;;14.52;88.82
41515;BME280;27247;48.020;16.720;2023-04-23T20:59:28;98975.38;;;14.54;88.72
41515;BME280;27247;48.020;16.720;2023-04-23T21:03:39;98969.25;;;14.47;88.63
41515;BME280;27247;48.020;16.720;2023-04-23T21:07:49;98975.81;;;14.51;86.22
41515;BME280;27247;48.020;16.720;2023-04-23T21:12:00;98968.31;;;14.60;87.36
41515;BME280;27247;48.020;16.720;2023-04-23T21:16:11;98972.38;;;14.44;90.15
41515;BME280;27247;48.020;16.720;2023-04-23T21:20:22;98964.72;;;14.41;88.66
41515;BME280;27247;48.020;16.720;2023-04-23T21:24:32;98955.44;;;14.44;87.48
41515;BME280;27247;48.020;16.720;2023-04-23T21:28:42;98960.13;;;14.48;87.21
41515;BME280;27247;48.020;16.720;2023-04-23T21:32:53;98953.56;;;14.44;87.42
41515;BME280;27247;48.020;16.720;2023-04-23T21:37:03;98949.41;;;14.42;88.11
41515;BME280;27247;48.020;16.720;2023-04-23T21:41:13;98947.41;;;14.37;88.79
41515;BME280;27247;48.020;16.720;2023-04-23T21:45:24;98933.66;;;14.27;89.36
41515;BME280;27247;48.020;16.720;2023-04-23T21:49:34;98935.06;;;14.29;88.38
41515;BME280;27247;48.020;16.720;2023-04-23T21:53:44;98930.38;;;14.25;88.14
41515;BME280;27247;48.020;16.720;2023-04-23T21:57:55;98931.41;;;14.24;88.92
41515;BME280;27247;48.020;16.720;2023-04-23T22:02:05;98925.19;;;14.05;89.35
41515;BME280;27247;48.020;16.720;2023-04-23T22:06:16;98915.97;;;13.94;90.38
41515;BME280;27247;48.020;16.720;2023-04-23T22:10:26;98915.81;;;13.89;90.94